Time;durP1;ratioP1;P1;durP2;ratioP2;P2;SDS_P1;SDS_P2;PMS_P1;PMS_P2;Temp;Humidity;BMP_temperature;BMP_pressure;BME280_temperature;BME280_humidity;BME280_pressure;Samples;Min_cycle;Max_cycle;Signal;HPM_P1;HPM_P2
2021/12/15 10:05:09;;;;;;;27.63;14.63;;;9.60;99.90;;;;;;5132132;28;20051;-63
2021/12/15 10:10:45;;;;;;;33.20;14.95;;;9.70;99.90;;;;;;5131778;28;20047;-63
2021/12/15 10:19:35;;;;;;;29.90;14.43;;;9.70;99.90;;;;;;5131819;28;20047;-64
2021/12/15 10:22:11;;;;;;;26.95;14.23;;;9.70;99.90;;;;;;5119916;27;20429;-63
2021/12/15 10:25:00;;;;;;;25.75;13.80;;;9.80;99.90;;;;;;5114160;28;20043;-62
2021/12/15 10:27:43;;;;;;;23.65;13.82;;;9.70;99.90;;;;;;5131334;28;20159;-63
2021/12/15 10:30:23;;;;;;;26.67;12.88;;;9.80;99.90;;;;;;5129481;28;20483;-62
2021/12/15 10:32:54;;;;;;;24.90;12.45;;;9.80;99.90;;;;;;5130791;27;20103;-62
2021/12/15 10:35:27;;;;;;;20.92;12.20;;;9.80;99.90;;;;;;5130792;28;20130;-62
2021/12/15 10:38:29;;;;;;;26.70;12.13;;;9.80;99.90;;;;;;5131406;28;20395;-62
2021/12/15 10:41:07;;;;;;;18.45;10.70;;;10.10;99.90;;;;;;5011134;28;20445;-62
2021/12/15 10:43:41;;;;;;;21.25;11.68;;;9.90;99.90;;;;;;5118794;27;20113;-62
2021/12/15 10:46:16;;;;;;;19.45;8.90;;;8.70;99.90;;;;;;5111914;28;20519;-62
2021/12/15 10:49:08;;;;;;;14.02;8.93;;;10.10;99.90;;;;;;5130959;28;20040;-62
2021/12/15 10:51:49;;;;;;;19.08;10.68;;;9.10;99.90;;;;;;5111014;28;20127;-62
2021/12/15 10:54:23;;;;;;;20.52;10.30;;;9.90;99.90;;;;;;5068381;28;20354;-63
2021/12/15 10:56:58;;;;;;;15.98;9.82;;;10.00;99.90;;;;;;5069915;28;20098;-62
2021/12/15 10:59:29;;;;;;;15.82;8.18;;;10.00;99.90;;;;;;5069962;28;20467;-62
2021/12/15 11:02:06;;;;;;;15.45;7.90;;;10.30;99.90;;;;;;5068747;28;20127;-63
2021/12/15 11:04:34;;;;;;;;;;;10.00;99.90;;;;;;5062171;28;20446;-62
2021/12/15 11:07:14;;;;;;;19.27;8.90;;;10.20;99.90;;;;;;5055531;28;20439;-62
2021/12/15 11:10:07;;;;;;;16.67;8.00;;;9.60;99.90;;;;;;5055824;28;20044;-62
2021/12/15 11:12:40;;;;;;;18.38;7.60;;;9.50;99.90;;;;;;5056063;28;20055;-62
2021/12/15 11:15:18;;;;;;;15.55;8.13;;;10.10;99.90;;;;;;5055203;28;20079;-66
2021/12/15 11:17:47;;;;;;;14.73;7.40;;;10.10;99.90;;;;;;5056070;28;20049;-62
2021/12/15 11:20:24;;;;;;;18.33;8.65;;;10.10;99.90;;;;;;5054782;28;20488;-62
2021/12/15 11:23:03;;;;;;;18.40;7.63;;;10.10;99.90;;;;;;5055757;28;20427;-62
2021/12/15 11:25:40;;;;;;;18.33;7.53;;;10.00;99.90;;;;;;5055904;28;20045;-62
2021/12/15 11:28:17;;;;;;;14.18;7.13;;;10.10;99.90;;;;;;5056466;28;20424;-62
2021/12/15 11:30:54;;;;;;;16.58;7.68;;;10.10;99.90;;;;;;5056127;28;20132;-62
2021/12/15 11:33:21;;;;;;;;;;;10.10;99.90;;;;;;5056330;28;20048;-63
2021/12/15 11:35:53;;;;;;;;;;;10.20;99.90;;;;;;5055054;28;19971;-62
2021/12/15 11:38:25;;;;;;;20.33;7.55;;;10.10;99.90;;;;;;5055848;28;19928;-62
2021/12/15 11:40:57;;;;;;;13.98;7.32;;;10.10;99.90;;;;;;5054556;28;20048;-61
2021/12/15 11:43:28;;;;;;;19.27;7.70;;;10.20;99.90;;;;;;5055324;28;20055;-61
2021/12/15 11:45:54;;;;;;;18.10;8.30;;;10.20;99.90;;;;;;5055204;28;20052;-63
2021/12/15 11:48:27;;;;;;;16.50;7.50;;;10.20;99.90;;;;;;5054538;28;20500;-63
2021/12/15 11:50:57;;;;;;;14.60;6.60;;;10.20;99.90;;;;;;5068512;28;20052;-60
2021/12/15 11:53:34;;;;;;;13.85;6.57;;;10.20;99.90;;;;;;5094183;28;20097;-60
2021/12/15 11:56:13;;;;;;;15.90;6.00;;;10.20;99.90;;;;;;5086766;28;20048;-62
2021/12/15 11:58:40;;;;;;;16.92;6.55;;;10.20;99.90;;;;;;5113895;28;20047;-62
2021/12/15 12:01:05;;;;;;;;;;;10.60;99.90;;;;;;5116336;28;20104;-62
2021/12/15 12:03:31;;;;;;;18.65;7.35;;;10.20;99.90;;;;;;5097675;28;19919;-61
2021/12/15 12:05:57;;;;;;;17.33;6.93;;;10.20;99.90;;;;;;5116130;28;20043;-62
2021/12/15 12:08:23;;;;;;;14.82;7.22;;;10.20;99.90;;;;;;5115988;28;20047;-61
2021/12/15 12:10:52;;;;;;;18.95;8.38;;;10.20;99.90;;;;;;5115480;28;20047;-61
2021/12/15 12:13:30;;;;;;;17.33;6.97;;;10.50;99.90;;;;;;5115465;28;20047;-61
2021/12/15 12:16:02;;;;;;;14.25;5.82;;;10.30;99.90;;;;;;5112785;28;20403;-62
2021/12/15 12:18:29;;;;;;;14.00;5.40;;;10.20;99.90;;;;;;5110536;28;20047;-62
2021/12/15 12:21:16;;;;;;;10.30;4.13;;;10.20;99.90;;;;;;5093717;28;20516;-63
2021/12/15 12:23:45;;;;;;;11.75;4.25;;;10.20;99.90;;;;;;5095199;28;20047;-62
2021/12/15 12:26:11;;;;;;;10.40;4.10;;;10.10;99.90;;;;;;5094974;28;20131;-61
2021/12/15 12:28:42;;;;;;;12.88;4.57;;;10.10;99.90;;;;;;5095035;28;20083;-62
2021/12/15 12:31:15;;;;;;;10.48;4.20;;;10.10;99.90;;;;;;5095760;28;20051;-61
2021/12/15 12:33:41;;;;;;;10.23;3.55;;;10.50;99.90;;;;;;5094715;28;20106;-62
2021/12/15 12:36:17;;;;;;;7.60;3.22;;;10.10;99.90;;;;;;5094763;28;20044;-62
2021/12/15 12:38:52;;;;;;;10.52;4.32;;;10.00;99.90;;;;;;5094831;28;20044;-61
2021/12/15 12:41:29;;;;;;;8.25;3.53;;;10.10;99.90;;;;;;5076592;28;20048;-62
2021/12/15 12:44:01;;;;;;;6.18;3.15;;;10.10;99.90;;;;;;5102781;28;20437;-66
2021/12/15 12:46:42;;;;;;;7.85;3.10;;;10.00;99.90;;;;;;5103492;28;20044;-62
2021/12/15 13:00:37;;;;;;;9.02;2.33;;;9.90;99.90;;;;;;5105143;28;20054;-62
2021/12/15 13:03:11;;;;;;;8.05;2.33;;;9.90;99.90;;;;;;5104881;28;20044;-61
2021/12/15 13:05:52;;;;;;;7.47;2.00;;;10.10;99.90;;;;;;5084372;28;20464;-61
2021/12/15 13:08:40;;;;;;;8.60;2.20;;;10.20;99.90;;;;;;5104490;28;20071;-61
2021/12/15 13:11:16;;;;;;;7.00;2.20;;;9.90;99.90;;;;;;5103823;28;20090;-63
2021/12/15 13:14:01;;;;;;;;;;;9.90;99.90;;;;;;5103005;28;20533;-62
2021/12/15 13:16:39;;;;;;;6.78;2.13;;;9.90;99.90;;;;;;5096232;28;19920;-62
2021/12/15 13:19:13;;;;;;;7.88;2.28;;;9.90;99.90;;;;;;5105259;27;20075;-62
2021/12/15 13:21:41;;;;;;;8.18;2.15;;;10.00;99.90;;;;;;5134398;27;20155;-61
2021/12/15 13:30:39;;;;;;;9.20;2.20;;;9.90;99.90;;;;;;5075830;28;20060;-62
2021/12/15 13:33:16;;;;;;;5.10;2.20;;;10.60;99.90;;;;;;5093748;28;20052;-61
2021/12/15 13:35:47;;;;;;;10.20;2.70;;;9.80;99.90;;;;;;5094461;28;20048;-61
2021/12/15 13:38:18;;;;;;;5.95;2.22;;;9.80;99.90;;;;;;5076360;28;20060;-61
2021/12/15 13:41:06;;;;;;;6.78;2.30;;;9.80;99.90;;;;;;5094596;28;20384;-61
2021/12/15 13:43:51;;;;;;;4.55;2.13;;;9.80;99.90;;;;;;5094199;28;20048;-61
2021/12/15 13:47:14;;;;;;;9.05;2.75;;;9.80;99.90;;;;;;5094149;28;20093;-62
2021/12/15 13:49:52;;;;;;;6.53;2.40;;;9.80;99.90;;;;;;5051052;28;20195;-61
2021/12/15 13:52:43;;;;;;;7.15;2.38;;;9.80;99.90;;;;;;5093453;28;20090;-62
2021/12/15 13:55:20;;;;;;;7.80;2.30;;;9.70;99.90;;;;;;5095516;28;20087;-61
2021/12/15 13:57:46;;;;;;;6.35;2.28;;;;;;;;;;5113981;28;20055;-63
2021/12/15 14:00:29;;;;;;;5.55;2.00;;;9.70;99.90;;;;;;5097012;28;20483;-61
2021/12/15 14:03:05;;;;;;;4.43;1.85;;;9.70;99.90;;;;;;5093479;28;20055;-61
2021/12/15 14:06:04;;;;;;;7.20;2.15;;;9.70;99.90;;;;;;5092806;28;20380;-61
2021/12/15 14:08:45;;;;;;;7.78;2.33;;;9.70;99.90;;;;;;5087184;28;20080;-62
2021/12/15 14:11:21;;;;;;;6.95;2.00;;;9.70;99.90;;;;;;5094023;28;20051;-62
2021/12/15 14:13:49;;;;;;;5.97;1.55;;;9.60;99.90;;;;;;5093579;28;20050;-61
2021/12/15 14:16:38;;;;;;;4.00;1.55;;;9.60;99.90;;;;;;5093348;28;20563;-62
2021/12/15 14:19:08;;;;;;;3.85;1.27;;;9.60;99.90;;;;;;5093527;28;20044;-62
2021/12/15 14:21:36;;;;;;;4.45;1.27;;;9.70;99.90;;;;;;5093174;28;20565;-63
2021/12/15 14:24:02;;;;;;;8.73;1.80;;;9.60;99.90;;;;;;5093293;28;20052;-62
2021/12/15 14:26:33;;;;;;;5.32;1.60;;;9.60;99.90;;;;;;5093420;28;20051;-63
2021/12/15 14:29:09;;;;;;;3.60;1.63;;;9.60;99.90;;;;;;5092651;28;20099;-62
2021/12/15 14:31:38;;;;;;;8.05;1.80;;;9.60;99.90;;;;;;5093954;28;20083;-62
2021/12/15 14:34:12;;;;;;;4.35;1.60;;;9.60;99.90;;;;;;5093306;28;20102;-62
2021/12/15 14:36:44;;;;;;;5.03;1.70;;;9.60;99.90;;;;;;5093870;28;20056;-62
2021/12/15 14:39:13;;;;;;;6.65;1.65;;;9.60;99.90;;;;;;5094195;28;20044;-62
2021/12/15 14:41:43;;;;;;;5.05;1.73;;;9.50;99.90;;;;;;5101811;27;20052;-62
2021/12/15 14:44:32;;;;;;;6.80;1.55;;;9.60;99.90;;;;;;5107280;28;20496;-62
2021/12/15 14:47:06;;;;;;;7.82;1.80;;;9.50;99.90;;;;;;5105887;28;20075;-62
2021/12/15 14:49:37;;;;;;;7.25;1.92;;;9.50;99.90;;;;;;5110962;28;20476;-62
2021/12/15 14:52:08;;;;;;;7.72;1.58;;;9.60;99.90;;;;;;5105516;28;20044;-63
2021/12/15 14:54:37;;;;;;;5.85;1.60;;;9.50;99.90;;;;;;5111165;28;20097;-62
2021/12/15 14:57:10;;;;;;;3.72;1.10;;;9.50;99.90;;;;;;5098923;28;20399;-62
2021/12/15 14:59:49;;;;;;;5.95;1.73;;;9.50;99.90;;;;;;5105361;28;20118;-63
2021/12/15 15:02:19;;;;;;;9.20;1.40;;;9.50;99.90;;;;;;5088121;28;20098;-63
2021/12/15 15:04:58;;;;;;;7.72;2.10;;;9.50;99.90;;;;;;5105301;28;20043;-63
2021/12/15 15:07:28;;;;;;;4.40;1.40;;;9.50;99.90;;;;;;5107320;28;20043;-62
2021/12/15 15:09:56;;;;;;;3.85;1.20;;;9.50;99.90;;;;;;5105670;28;20051;-62
2021/12/15 15:12:25;;;;;;;6.30;1.30;;;9.50;99.90;;;;;;5105835;28;20040;-62
2021/12/15 15:15:00;;;;;;;4.18;1.27;;;9.50;99.90;;;;;;5105338;28;20109;-63
2021/12/15 15:17:36;;;;;;;3.83;1.15;;;9.50;99.90;;;;;;5104937;28;20127;-62
2021/12/15 15:20:24;;;;;;;6.15;1.67;;;9.50;99.90;;;;;;5104238;28;20040;-61
2021/12/15 15:22:55;;;;;;;5.30;1.52;;;9.50;99.90;;;;;;5105059;28;20123;-61
2021/12/15 15:25:25;;;;;;;4.97;1.50;;;9.50;99.90;;;;;;5086871;28;20051;-62
2021/12/15 15:27:55;;;;;;;7.07;1.50;;;9.50;99.90;;;;;;5105071;28;20124;-62
2021/12/15 15:30:26;;;;;;;5.93;1.50;;;9.40;99.90;;;;;;5087573;28;20126;-61
2021/12/15 15:32:58;;;;;;;6.25;1.50;;;9.40;99.90;;;;;;5104711;28;20048;-62
2021/12/15 15:35:30;;;;;;;3.05;1.40;;;9.40;99.90;;;;;;5105166;28;20093;-61
2021/12/15 15:37:58;;;;;;;6.85;1.73;;;9.40;99.90;;;;;;5105302;28;20517;-62
2021/12/15 15:40:29;;;;;;;6.50;1.80;;;9.40;99.90;;;;;;5104233;28;20505;-61
2021/12/15 15:43:01;;;;;;;4.18;1.42;;;9.40;99.90;;;;;;5086212;28;20044;-63
2021/12/15 15:45:38;;;;;;;3.90;1.55;;;9.40;99.90;;;;;;5103900;28;20541;-63
2021/12/15 15:48:07;;;;;;;4.25;1.50;;;9.40;99.90;;;;;;5107017;28;20047;-61
2021/12/15 15:50:34;;;;;;;7.82;1.60;;;9.40;99.90;;;;;;5108179;28;20051;-61
2021/12/15 15:53:02;;;;;;;4.35;1.50;;;9.40;99.90;;;;;;5086655;28;20048;-62
2021/12/15 15:55:28;;;;;;;6.40;1.60;;;9.40;99.90;;;;;;5115974;28;20475;-61
2021/12/15 15:57:58;;;;;;;4.18;1.65;;;9.40;99.90;;;;;;5110106;28;20389;-61
2021/12/15 16:00:27;;;;;;;5.03;1.67;;;9.40;99.90;;;;;;5083402;28;20040;-62
2021/12/15 16:02:55;;;;;;;5.25;1.83;;;9.40;99.90;;;;;;5101815;28;20101;-63
2021/12/15 16:05:22;;;;;;;7.28;1.65;;;9.40;99.90;;;;;;5103504;28;20069;-63
2021/12/15 16:07:49;;;;;;;5.38;1.63;;;9.40;99.90;;;;;;5122615;27;20099;-63
2021/12/15 16:10:27;;;;;;;5.55;1.80;;;9.40;99.90;;;;;;5124071;27;20484;-62
2021/12/15 16:12:57;;;;;;;5.45;1.75;;;9.40;99.90;;;;;;5108275;28;20476;-61
2021/12/15 16:16:09;;;;;;;5.43;1.80;;;9.40;99.90;;;;;;5088553;28;20040;-62
2021/12/15 16:18:41;;;;;;;5.72;1.80;;;9.40;99.90;;;;;;5073518;28;20067;-61
2021/12/15 16:23:34;;;;;;;5.88;3.05;;;9.30;99.90;;;;;;5104197;28;20365;-61
2021/12/15 16:26:11;;;;;;;6.03;2.08;;;9.30;99.90;;;;;;5104235;28;20043;-62
2021/12/15 16:28:43;;;;;;;6.93;2.05;;;9.30;99.90;;;;;;5104730;28;20040;-62
2021/12/15 16:31:11;;;;;;;4.68;1.60;;;9.30;99.90;;;;;;5100330;28;20146;-62
2021/12/15 16:33:47;;;;;;;7.05;2.00;;;9.30;99.90;;;;;;5102682;28;20399;-63
2021/12/15 16:36:20;;;;;;;4.32;1.63;;;9.30;99.90;;;;;;5104937;28;20143;-62
2021/12/15 16:38:54;;;;;;;3.65;1.77;;;9.30;99.90;;;;;;5103839;28;20055;-62
2021/12/15 16:41:34;;;;;;;6.50;1.95;;;9.20;99.90;;;;;;5103294;28;20051;-62
2021/12/15 16:44:09;;;;;;;5.05;1.98;;;9.20;99.90;;;;;;5077023;28;20051;-61
2021/12/15 16:46:40;;;;;;;6.70;2.30;;;9.20;99.90;;;;;;5094863;28;20082;-61
2021/12/15 16:49:16;;;;;;;6.40;2.25;;;9.20;99.90;;;;;;5107742;28;20043;-62
2021/12/15 16:51:53;;;;;;;7.45;2.78;;;9.20;99.90;;;;;;5087479;28;20127;-61
2021/12/15 16:54:20;;;;;;;5.72;2.20;;;9.20;99.90;;;;;;5103722;28;20399;-62
2021/12/15 16:56:55;;;;;;;6.13;2.20;;;9.20;99.90;;;;;;5103252;28;20058;-62
2021/12/15 16:59:24;;;;;;;4.93;2.50;;;9.20;99.90;;;;;;5103000;28;20040;-61
2021/12/15 17:01:56;;;;;;;5.18;2.55;;;9.20;99.90;;;;;;5103294;28;20040;-64
2021/12/15 17:04:24;;;;;;;5.57;2.50;;;9.20;99.90;;;;;;5094637;28;20051;-59
2021/12/15 17:06:51;;;;;;;4.47;2.13;;;9.10;99.90;;;;;;5104559;27;20475;-60
2021/12/15 17:09:30;;;;;;;6.75;2.53;;;9.10;99.90;;;;;;5114440;28;20047;-60
2021/12/15 17:12:21;;;;;;;5.93;2.92;;;9.10;99.90;;;;;;5114851;28;20126;-61
2021/12/15 17:14:56;;;;;;;5.47;2.60;;;9.10;99.90;;;;;;5096238;28;20384;-61
2021/12/15 17:17:34;;;;;;;7.43;2.70;;;8.90;99.90;;;;;;5114443;28;20100;-60
2021/12/15 17:20:01;;;;;;;5.07;3.00;;;9.00;99.90;;;;;;5096115;28;20063;-61
2021/12/15 17:22:26;;;;;;;6.35;2.83;;;8.90;99.90;;;;;;5114313;28;20043;-61
2021/12/15 17:24:52;;;;;;;5.78;2.90;;;8.90;99.90;;;;;;5096078;28;20054;-62
2021/12/15 17:27:18;;;;;;;6.72;3.40;;;8.80;99.90;;;;;;5114920;28;20094;-62
2021/12/15 17:29:44;;;;;;;7.72;3.30;;;8.80;99.90;;;;;;5114364;28;20054;-61
2021/12/15 17:32:16;;;;;;;6.63;3.03;;;8.80;99.90;;;;;;5096017;28;20052;-61
2021/12/15 17:34:44;;;;;;;5.90;3.17;;;8.60;99.90;;;;;;5114166;28;20492;-61
2021/12/15 17:37:17;;;;;;;7.50;3.40;;;8.60;99.90;;;;;;5114197;28;20499;-61
2021/12/15 17:39:56;;;;;;;6.60;3.72;;;8.50;99.90;;;;;;5096056;28;20055;-61
2021/12/15 17:42:31;;;;;;;6.13;3.95;;;8.50;99.90;;;;;;5114753;28;20472;-60
2021/12/15 17:45:01;;;;;;;6.10;3.63;;;8.40;99.90;;;;;;5113893;28;20075;-61
2021/12/15 17:47:37;;;;;;;8.60;4.18;;;8.30;99.90;;;;;;5113992;28;20090;-61
2021/12/15 17:50:20;;;;;;;8.00;4.88;;;8.30;99.90;;;;;;5114943;28;20120;-61
2021/12/15 17:52:48;;;;;;;8.00;4.53;;;8.20;99.90;;;;;;5113877;28;20116;-61
2021/12/15 17:55:24;;;;;;;8.07;4.07;;;8.20;99.90;;;;;;5113895;28;20047;-60
2021/12/15 17:58:06;;;;;;;7.72;4.35;;;8.20;99.90;;;;;;5113934;28;20078;-61
2021/12/15 18:00:42;;;;;;;9.35;4.68;;;8.10;99.90;;;;;;5114368;28;20048;-61
2021/12/15 18:03:10;;;;;;;;;;;8.00;99.90;;;;;;5114846;28;20051;-61
2021/12/15 18:05:38;;;;;;;14.27;5.15;;;8.00;99.90;;;;;;5113876;28;19924;-62
2021/12/15 18:08:05;;;;;;;9.13;4.93;;;7.90;99.90;;;;;;5114115;28;20391;-60
2021/12/15 18:13:25;;;;;;;10.15;5.72;;;7.90;99.90;;;;;;5089462;28;20365;-61
2021/12/15 18:15:53;;;;;;;10.57;5.95;;;7.80;99.90;;;;;;5117702;28;20044;-61
2021/12/15 18:18:19;;;;;;;11.27;7.50;;;7.80;99.90;;;;;;5118487;28;20135;-62
2021/12/15 18:20:46;;;;;;;9.13;5.80;;;7.70;99.90;;;;;;5117952;28;20047;-61
2021/12/15 18:23:13;;;;;;;8.60;4.85;;;7.70;99.90;;;;;;5117671;28;20054;-62
2021/12/15 18:25:39;;;;;;;8.30;4.55;;;7.50;99.90;;;;;;5117794;28;20048;-62
2021/12/15 18:28:05;;;;;;;12.57;7.72;;;7.60;99.90;;;;;;5117749;28;20096;-61
2021/12/15 18:30:42;;;;;;;14.20;8.90;;;7.50;99.90;;;;;;5117673;28;20130;-61
2021/12/15 18:33:10;;;;;;;;;;;7.50;99.90;;;;;;5118675;28;20066;-61
2021/12/15 18:35:37;;;;;;;19.95;11.38;;;7.40;99.90;;;;;;5117530;28;19973;-64
2021/12/15 18:38:04;;;;;;;9.75;6.47;;;7.40;99.90;;;;;;5099079;28;20495;-62
2021/12/15 18:40:35;;;;;;;12.32;5.47;;;7.30;99.90;;;;;;5099350;28;20052;-62
2021/12/15 18:43:04;;;;;;;9.20;5.57;;;7.30;99.90;;;;;;5117413;28;20046;-62
2021/12/15 18:45:32;;;;;;;11.02;5.05;;;7.20;99.90;;;;;;5117418;28;20109;-62
2021/12/15 18:47:58;;;;;;;8.27;5.32;;;7.20;99.90;;;;;;5118227;28;20371;-62
2021/12/15 18:50:29;;;;;;;8.13;4.85;;;7.20;99.90;;;;;;5117931;28;20053;-61
2021/12/15 18:52:55;;;;;;;9.75;5.35;;;7.20;99.90;;;;;;5117452;28;20056;-62
2021/12/15 18:55:24;;;;;;;10.57;5.20;;;7.10;99.90;;;;;;5117294;28;20051;-62
2021/12/15 18:57:51;;;;;;;9.57;5.28;;;7.00;99.90;;;;;;5117111;28;20411;-62
2021/12/15 19:00:21;;;;;;;10.73;5.47;;;7.10;99.90;;;;;;5099098;28;20093;-62
2021/12/15 19:02:47;;;;;;;10.35;4.78;;;7.10;99.90;;;;;;5117486;28;20040;-62
2021/12/15 19:05:13;;;;;;;;;;;7.10;99.90;;;;;;5117996;28;20416;-61
2021/12/15 19:07:40;;;;;;;12.93;4.70;;;7.10;99.90;;;;;;5099032;28;19919;-62
2021/12/15 19:10:09;;;;;;;10.48;4.80;;;7.00;99.90;;;;;;5117729;28;20054;-62
2021/12/15 19:12:35;;;;;;;8.23;4.80;;;7.00;99.90;;;;;;5099431;28;20043;-63
2021/12/15 19:15:02;;;;;;;9.82;5.10;;;7.00;99.90;;;;;;5116771;28;20047;-62
2021/12/15 19:17:28;;;;;;;11.95;5.13;;;7.00;99.90;;;;;;5116772;28;20093;-62
2021/12/15 19:19:57;;;;;;;11.05;5.55;;;7.00;99.90;;;;;;5098654;28;20116;-61
2021/12/15 19:22:26;;;;;;;7.72;4.50;;;7.00;99.90;;;;;;5116947;28;20043;-62
2021/12/15 19:24:53;;;;;;;9.77;4.13;;;7.00;99.90;;;;;;5115711;28;20514;-62
2021/12/15 19:27:19;;;;;;;8.65;4.40;;;7.00;99.90;;;;;;5116578;28;20479;-62
2021/12/15 19:29:48;;;;;;;;;;;7.00;99.90;;;;;;5116987;28;20061;-62
2021/12/15 19:32:14;;;;;;;7.20;4.18;;;7.00;99.90;;;;;;5116936;28;20275;-62
2021/12/15 19:34:39;;;;;;;;;;;7.00;99.90;;;;;;5116772;28;20080;-61
2021/12/15 19:37:07;;;;;;;7.65;4.55;;;7.00;99.90;;;;;;5116431;28;19973;-63
2021/12/15 19:39:34;;;;;;;10.75;4.82;;;7.00;99.90;;;;;;5116668;28;20105;-61
2021/12/15 19:42:00;;;;;;;7.15;4.97;;;7.00;99.90;;;;;;5116359;28;20055;-61
2021/12/15 19:44:26;;;;;;;14.93;5.93;;;7.00;99.90;;;;;;5116181;28;20657;-62
2021/12/15 19:46:55;;;;;;;9.38;4.93;;;7.00;99.90;;;;;;5099092;28;20047;-61
2021/12/15 19:49:23;;;;;;;16.38;5.55;;;7.00;99.90;;;;;;5116174;28;20044;-62
2021/12/15 19:51:49;;;;;;;9.82;4.97;;;7.00;99.90;;;;;;5098856;28;20047;-61
2021/12/15 19:54:16;;;;;;;10.02;4.57;;;7.00;99.90;;;;;;5094715;28;20047;-63
2021/12/15 19:56:44;;;;;;;10.27;5.00;;;6.90;99.90;;;;;;5090386;28;20047;-62
2021/12/15 19:59:10;;;;;;;8.55;4.35;;;7.00;99.90;;;;;;5084667;28;20044;-60
2021/12/15 20:01:40;;;;;;;11.57;5.00;;;7.00;99.90;;;;;;5100870;28;20115;-63
2021/12/15 20:04:08;;;;;;;9.25;4.65;;;7.00;99.90;;;;;;5095420;28;20056;-61
2021/12/15 20:06:36;;;;;;;14.23;5.25;;;7.00;99.90;;;;;;5095956;28;20388;-60
2021/12/15 20:09:08;;;;;;;13.20;7.75;;;7.00;99.90;;;;;;5094479;28;20478;-60
2021/12/15 20:11:35;;;;;;;13.25;6.20;;;7.00;99.90;;;;;;5095581;28;20495;-62
2021/12/15 20:14:05;;;;;;;12.60;6.20;;;7.00;99.90;;;;;;5095459;28;20055;-60
2021/12/15 20:16:34;;;;;;;11.40;6.45;;;7.00;99.90;;;;;;5095843;28;20130;-60
2021/12/15 20:19:01;;;;;;;13.48;6.32;;;7.10;99.90;;;;;;5095034;28;20089;-59
2021/12/15 20:21:29;;;;;;;11.73;6.53;;;7.00;99.90;;;;;;5094189;28;20048;-61
2021/12/15 20:23:55;;;;;;;11.75;6.38;;;7.10;99.90;;;;;;5095249;28;20055;-61
2021/12/15 20:26:23;;;;;;;;;;;7.10;99.90;;;;;;5096247;28;20093;-58
2021/12/15 20:28:49;;;;;;;13.60;8.07;;;7.10;99.90;;;;;;5094890;28;19920;-61
2021/12/15 20:31:20;;;;;;;12.00;6.20;;;7.10;99.90;;;;;;5095037;28;20051;-61
2021/12/15 20:33:46;;;;;;;12.00;6.70;;;7.20;99.90;;;;;;5094874;28;20044;-64
2021/12/15 20:36:12;;;;;;;11.32;5.97;;;7.20;99.90;;;;;;5102073;28;20048;-61
2021/12/15 20:38:39;;;;;;;20.70;6.20;;;7.30;99.90;;;;;;5103186;28;20116;-61
2021/12/15 20:41:09;;;;;;;10.98;6.57;;;7.40;99.90;;;;;;5087086;28;20048;-61
2021/12/15 20:43:37;;;;;;;12.55;6.40;;;7.30;99.90;;;;;;5085823;28;20418;-63
2021/12/15 20:46:03;;;;;;;14.63;6.65;;;7.40;99.90;;;;;;5081843;28;20059;-63
2021/12/15 20:48:29;;;;;;;14.15;6.65;;;7.40;99.90;;;;;;5105697;28;20138;-61
2021/12/15 20:51:02;;;;;;;16.23;6.95;;;7.40;99.90;;;;;;5102594;28;20339;-61
2021/12/15 20:53:29;;;;;;;17.77;7.03;;;7.50;99.90;;;;;;5094528;28;20071;-61
2021/12/15 20:55:55;;;;;;;16.67;7.18;;;7.50;99.90;;;;;;5094151;28;20496;-61
2021/12/15 20:58:21;;;;;;;13.27;6.80;;;7.50;99.90;;;;;;5094375;28;20066;-63
2021/12/15 21:00:48;;;;;;;;;;;7.60;99.90;;;;;;5103046;28;20043;-61
2021/12/15 21:03:15;;;;;;;18.30;8.60;;;7.70;99.90;;;;;;5115414;28;20018;-62
2021/12/15 21:05:53;;;;;;;15.77;8.40;;;7.60;99.90;;;;;;5115305;28;20057;-61
2021/12/15 21:08:21;;;;;;;17.42;8.25;;;7.70;99.90;;;;;;5114898;28;20468;-60
2021/12/15 21:10:50;;;;;;;18.60;9.05;;;7.80;99.90;;;;;;5115144;28;20100;-61
2021/12/15 21:13:16;;;;;;;16.00;8.95;;;7.80;99.90;;;;;;5114205;28;20052;-62
2021/12/15 21:15:43;;;;;;;19.35;7.68;;;7.80;99.90;;;;;;5114385;28;20054;-61
2021/12/15 21:18:09;;;;;;;14.70;8.18;;;7.80;99.90;;;;;;5114568;28;20516;-61
2021/12/15 21:20:36;;;;;;;15.77;7.40;;;7.80;99.90;;;;;;5114467;28;20233;-60
2021/12/15 21:23:03;;;;;;;16.08;8.02;;;7.80;99.90;;;;;;5114292;28;20053;-60
2021/12/15 21:25:30;;;;;;;18.30;8.10;;;7.80;99.90;;;;;;5114861;28;20353;-61
2021/12/15 21:27:57;;;;;;;18.00;8.23;;;7.70;99.90;;;;;;5114778;28;20064;-61
2021/12/15 21:30:33;;;;;;;16.10;8.02;;;7.70;99.90;;;;;;5114103;28;20051;-61
2021/12/15 21:33:01;;;;;;;21.63;8.40;;;7.70;99.90;;;;;;5114307;28;20044;-61
2021/12/15 21:35:30;;;;;;;18.13;8.43;;;7.70;99.90;;;;;;5114418;28;20062;-62
2021/12/15 21:37:57;;;;;;;15.65;8.32;;;7.60;99.90;;;;;;5096181;28;20048;-63
2021/12/15 21:40:27;;;;;;;19.85;8.60;;;7.60;99.90;;;;;;5113981;28;20074;-63
2021/12/15 21:42:55;;;;;;;15.35;8.27;;;7.60;99.90;;;;;;5104090;28;20043;-61
2021/12/15 21:45:26;;;;;;;15.10;8.43;;;7.60;99.90;;;;;;5103762;28;20096;-61
2021/12/15 21:47:53;;;;;;;15.77;8.38;;;7.60;99.90;;;;;;5105629;28;20043;-62
2021/12/15 21:50:19;;;;;;;19.73;8.75;;;7.60;99.90;;;;;;5096772;28;20052;-61
2021/12/15 21:52:45;;;;;;;;;;;7.60;99.90;;;;;;5102077;28;20056;-60
2021/12/15 21:55:16;;;;;;;19.25;9.75;;;7.50;99.90;;;;;;5102559;28;20405;-62
2021/12/15 21:57:42;;;;;;;16.63;10.02;;;7.50;99.90;;;;;;5093822;28;20392;-62
